createdAt,value
2023-06-27T00:01:46.109Z,2.30
2023-06-27T00:04:12.588Z,2.92
2023-06-27T00:06:42.233Z,1.80
2023-06-27T00:09:10.555Z,1.90
2023-06-27T00:11:40.136Z,2.50
2023-06-27T00:16:34.008Z,2.00
2023-06-27T00:19:04.971Z,3.05
2023-06-27T00:21:35.941Z,2.00
2023-06-27T00:24:02.907Z,2.33
2023-06-27T00:26:29.622Z,2.20
2023-06-27T00:28:56.370Z,1.75
2023-06-27T00:31:23.088Z,2.00
2023-06-27T00:33:49.551Z,2.25
2023-06-27T00:36:16.047Z,2.60
2023-06-27T00:38:42.494Z,2.20
2023-06-27T00:41:08.985Z,2.08
2023-06-27T00:43:35.461Z,2.25
2023-06-27T00:46:07.335Z,2.58
2023-06-27T00:48:33.952Z,2.47
2023-06-27T00:51:00.582Z,2.10
2023-06-27T00:53:27.751Z,2.65
2023-06-27T00:55:54.499Z,2.60
2023-06-27T00:58:21.511Z,1.92
2023-06-27T01:00:49.235Z,2.97
2023-06-27T01:03:16.075Z,2.08
2023-06-27T01:05:43.308Z,2.03
2023-06-27T01:08:18.652Z,1.90
2023-06-27T01:11:07.775Z,2.60
2023-06-27T01:13:41.680Z,2.05
2023-06-27T01:16:09.783Z,2.80
2023-06-27T01:18:38.256Z,2.00
2023-06-27T01:21:09.118Z,2.22
2023-06-27T01:23:50.162Z,1.70
2023-06-27T01:26:17.131Z,1.70
2023-06-27T01:28:43.553Z,2.22
2023-06-27T01:31:30.632Z,2.90
2023-06-27T01:33:56.959Z,2.20
2023-06-27T01:36:37.980Z,2.30
2023-06-27T01:39:10.005Z,2.08
2023-06-27T01:41:39.141Z,2.35
2023-06-27T01:44:07.191Z,1.95
2023-06-27T01:46:34.063Z,2.30
2023-06-27T01:49:01.067Z,2.30
2023-06-27T01:51:27.533Z,2.33
2023-06-27T01:53:53.956Z,2.55
2023-06-27T01:56:20.464Z,2.33
2023-06-27T01:58:47.314Z,1.95
2023-06-27T02:01:13.809Z,2.17
2023-06-27T02:03:40.282Z,1.75
2023-06-27T02:06:06.692Z,2.20
2023-06-27T02:08:33.261Z,1.90
2023-06-27T02:10:59.858Z,2.30
2023-06-27T02:13:26.816Z,1.95
2023-06-27T02:15:53.248Z,2.20
2023-06-27T02:18:19.664Z,2.40
2023-06-27T02:20:46.089Z,2.13
2023-06-27T02:23:12.498Z,1.98
2023-06-27T02:25:39.343Z,2.15
2023-06-27T02:28:06.819Z,2.08
2023-06-27T02:30:33.317Z,1.98
2023-06-27T02:32:59.861Z,2.08
2023-06-27T02:35:26.362Z,2.38
2023-06-27T02:37:52.863Z,2.60
2023-06-27T02:40:19.297Z,2.30
2023-06-27T02:42:45.791Z,2.50
2023-06-27T02:45:12.321Z,2.58
2023-06-27T02:47:39.556Z,2.13
2023-06-27T02:50:06.370Z,2.30
2023-06-27T02:52:32.817Z,2.90
2023-06-27T02:54:59.276Z,2.60
2023-06-27T02:57:25.738Z,2.40
2023-06-27T02:59:52.153Z,2.85
2023-06-27T03:02:18.576Z,2.90
2023-06-27T03:04:47.813Z,3.08
2023-06-27T03:07:14.622Z,2.65
2023-06-27T03:09:41.089Z,3.17
2023-06-27T03:12:08.248Z,2.95
2023-06-27T03:14:34.664Z,2.80
2023-06-27T03:17:01.125Z,2.42
2023-06-27T03:19:42.120Z,2.30
2023-06-27T03:22:09.913Z,2.40
2023-06-27T03:24:36.329Z,2.70
2023-06-27T03:27:02.760Z,2.80
2023-06-27T03:29:29.192Z,2.55
2023-06-27T03:31:58.469Z,2.22
2023-06-27T03:36:51.472Z,2.53
2023-06-27T03:39:17.895Z,2.40
2023-06-27T03:41:44.332Z,2.67
2023-06-27T03:44:10.903Z,2.50
2023-06-27T03:46:37.580Z,2.78
2023-06-27T03:49:04.075Z,2.60
2023-06-27T03:51:30.529Z,2.67
2023-06-27T03:53:56.958Z,2.35
2023-06-27T03:56:23.994Z,2.58
2023-06-27T03:58:50.409Z,2.72
2023-06-27T04:01:16.822Z,2.53
2023-06-27T04:03:43.298Z,2.20
2023-06-27T04:06:09.825Z,2.63
2023-06-27T04:08:36.245Z,2.60
2023-06-27T04:11:02.905Z,3.05
2023-06-27T04:13:29.347Z,2.72
2023-06-27T04:15:55.795Z,2.40
2023-06-27T04:18:22.209Z,2.30
2023-06-27T04:20:48.610Z,2.53
2023-06-27T04:23:15.135Z,2.63
2023-06-27T04:25:45.078Z,2.70
2023-06-27T04:28:11.492Z,2.50
2023-06-27T04:30:37.920Z,2.75
2023-06-27T04:33:04.504Z,3.00
2023-06-27T04:35:31.031Z,2.58
2023-06-27T04:37:57.896Z,2.88
2023-06-27T04:40:24.306Z,2.88
2023-06-27T04:42:50.715Z,3.15
2023-06-27T04:45:17.152Z,2.22
2023-06-27T04:47:44.005Z,2.70
2023-06-27T04:50:15.554Z,3.00
2023-06-27T04:52:42.572Z,2.85
2023-06-27T04:55:09.794Z,3.00
2023-06-27T04:57:36.268Z,2.45
2023-06-27T05:00:06.098Z,2.90
2023-06-27T05:02:32.601Z,2.55
2023-06-27T05:04:59.303Z,2.83
2023-06-27T05:07:25.778Z,2.53
2023-06-27T05:09:52.209Z,2.90
2023-06-27T05:12:18.686Z,3.17
2023-06-27T05:14:45.087Z,2.72
2023-06-27T05:17:11.490Z,2.92
2023-06-27T05:19:37.913Z,2.67
2023-06-27T05:22:04.351Z,2.63
2023-06-27T05:24:30.765Z,2.33
2023-06-27T05:26:57.186Z,2.45
2023-06-27T05:29:26.064Z,2.45
2023-06-27T05:31:53.591Z,2.35
2023-06-27T05:34:20.061Z,2.33
2023-06-27T05:36:46.481Z,2.08
2023-06-27T05:41:03.734Z,3.20
2023-06-27T05:43:30.151Z,2.40
2023-06-27T05:45:56.576Z,2.33
2023-06-27T05:48:22.991Z,2.20
2023-06-27T05:50:49.389Z,2.65
2023-06-27T05:53:15.803Z,2.13
2023-06-27T05:55:42.375Z,2.25
2023-06-27T05:58:09.018Z,2.30
2023-06-27T06:00:35.417Z,2.00
2023-06-27T06:03:01.898Z,2.35
2023-06-27T06:05:28.355Z,2.45
2023-06-27T06:07:55.232Z,2.05
2023-06-27T06:10:23.019Z,2.20
2023-06-27T06:12:49.981Z,1.90
2023-06-27T06:15:18.774Z,2.10
2023-06-27T06:17:45.731Z,2.30
2023-06-27T06:20:12.432Z,1.98
2023-06-27T06:22:39.088Z,2.40
2023-06-27T06:25:06.058Z,2.50
2023-06-27T06:27:32.526Z,2.40
2023-06-27T06:29:59.055Z,2.08
2023-06-27T06:32:25.480Z,2.15
2023-06-27T06:34:52.079Z,2.17
2023-06-27T06:37:18.575Z,2.20
2023-06-27T06:39:45.032Z,1.52
2023-06-27T06:42:11.601Z,1.98
2023-06-27T06:44:38.069Z,1.70
2023-06-27T06:47:04.809Z,2.08
2023-06-27T06:49:31.226Z,1.85
2023-06-27T06:51:57.676Z,2.20
2023-06-27T06:54:24.092Z,1.67
2023-06-27T06:56:50.773Z,1.83
2023-06-27T06:59:17.220Z,2.35
2023-06-27T07:01:43.750Z,1.92
2023-06-27T07:04:10.214Z,1.67
2023-06-27T07:06:36.942Z,2.08
2023-06-27T07:09:03.432Z,1.52
2023-06-27T07:11:29.858Z,2.03
2023-06-27T07:13:56.286Z,1.88
2023-06-27T07:16:22.795Z,2.33
2023-06-27T07:18:49.253Z,2.10
2023-06-27T07:21:15.734Z,1.75
2023-06-27T07:23:42.213Z,1.40
2023-06-27T07:26:08.632Z,1.65
2023-06-27T07:28:35.250Z,1.58
2023-06-27T07:31:01.725Z,1.88
2023-06-27T07:33:28.265Z,1.48
2023-06-27T07:35:54.704Z,1.80
2023-06-27T07:38:21.118Z,1.30
2023-06-27T07:40:47.530Z,1.80
2023-06-27T07:43:13.952Z,1.52
2023-06-27T07:45:40.432Z,1.60
2023-06-27T07:48:07.209Z,1.45
2023-06-27T07:50:33.681Z,1.35
2023-06-27T07:53:00.169Z,1.35
2023-06-27T07:55:26.602Z,1.40
2023-06-27T07:57:53.054Z,1.40
2023-06-27T08:00:19.807Z,1.20
2023-06-27T08:02:46.272Z,1.42
2023-06-27T08:05:12.788Z,1.55
2023-06-27T08:07:39.379Z,1.55
2023-06-27T08:10:06.243Z,1.40
2023-06-27T08:12:32.689Z,1.35
2023-06-27T08:14:59.100Z,1.23
2023-06-27T08:17:25.539Z,1.20
2023-06-27T08:19:51.970Z,1.17
2023-06-27T08:22:18.388Z,1.63
2023-06-27T08:24:44.843Z,1.38
2023-06-27T08:27:11.242Z,1.15
2023-06-27T08:29:37.649Z,1.23
2023-06-27T08:32:04.402Z,1.13
2023-06-27T08:34:33.112Z,1.83
2023-06-27T08:36:59.716Z,1.40
2023-06-27T08:39:27.398Z,1.42
2023-06-27T08:41:53.879Z,1.15
2023-06-27T08:44:20.312Z,1.30
2023-06-27T08:46:48.336Z,1.15
2023-06-27T08:49:23.323Z,1.33
2023-06-27T08:51:51.529Z,1.02
2023-06-27T08:54:24.379Z,1.30
2023-06-27T08:56:51.971Z,1.35
2023-06-27T08:59:20.983Z,1.23
2023-06-27T09:01:49.114Z,1.23
2023-06-27T09:04:16.321Z,1.08
2023-06-27T09:06:42.825Z,1.20
2023-06-27T09:09:09.476Z,1.33
2023-06-27T09:11:36.007Z,1.30
2023-06-27T09:14:03.071Z,1.30
2023-06-27T09:18:08.829Z,1.30
2023-06-27T09:20:35.443Z,1.33
2023-06-27T09:23:06.600Z,1.20
2023-06-27T09:25:33.144Z,1.20
2023-06-27T09:28:13.912Z,1.40
2023-06-27T09:30:40.613Z,1.60
2023-06-27T09:33:07.245Z,1.27
2023-06-27T09:35:59.534Z,1.35
2023-06-27T09:41:07.392Z,1.25
2023-06-27T09:43:36.412Z,1.08
2023-06-27T09:46:05.104Z,1.02
2023-06-27T09:48:31.740Z,0.98
2023-06-27T09:51:02.082Z,1.13
2023-06-27T09:56:29.005Z,1.00
2023-06-27T09:58:58.599Z,1.00
2023-06-27T10:01:28.542Z,0.90
2023-06-27T10:03:55.053Z,1.05
2023-06-27T10:06:21.677Z,1.30
2023-06-27T10:08:48.178Z,1.23
2023-06-27T10:12:15.475Z,0.80
2023-06-27T10:14:44.456Z,1.10
2023-06-27T10:17:19.694Z,0.90
2023-06-27T10:19:46.687Z,0.80
2023-06-27T10:22:18.011Z,1.10
2023-06-27T10:24:46.439Z,1.38
2023-06-27T10:27:16.770Z,1.35
2023-06-27T10:29:43.706Z,0.80
2023-06-27T10:32:10.196Z,1.10
2023-06-27T10:34:41.839Z,1.40
2023-06-27T10:37:13.144Z,0.93
2023-06-27T10:39:41.251Z,0.73
2023-06-27T10:42:16.878Z,1.13
2023-06-27T10:44:55.447Z,2.40
2023-06-27T10:47:21.887Z,1.33
2023-06-27T10:49:49.309Z,0.95
2023-06-27T10:52:24.135Z,0.98
2023-06-27T10:55:16.226Z,1.20
2023-06-27T10:57:48.912Z,0.93
2023-06-27T11:00:25.971Z,0.85
2023-06-27T11:02:55.911Z,1.00
2023-06-27T11:05:55.161Z,0.80
2023-06-27T11:08:22.278Z,0.90
2023-06-27T11:11:08.610Z,0.70
2023-06-27T11:13:45.944Z,0.90
2023-06-27T11:16:13.274Z,0.80
2023-06-27T11:18:39.889Z,0.70
2023-06-27T11:21:06.341Z,1.20
2023-06-27T11:23:32.818Z,0.77
2023-06-27T11:26:00.203Z,0.80
2023-06-27T11:28:26.859Z,0.80
2023-06-27T11:31:00.766Z,0.90
2023-06-27T11:33:27.517Z,0.73
2023-06-27T11:35:57.267Z,0.88
2023-06-27T11:38:26.540Z,0.60
2023-06-27T11:40:53.512Z,0.63
2023-06-27T11:43:20.301Z,0.98
2023-06-27T11:45:51.282Z,0.70
2023-06-27T11:48:17.873Z,0.90
2023-06-27T11:51:05.172Z,0.90
2023-06-27T11:53:31.658Z,0.88
2023-06-27T11:58:36.574Z,0.80
2023-06-27T12:01:05.542Z,0.70
2023-06-27T12:03:34.294Z,0.90
2023-06-27T12:06:00.849Z,1.15
2023-06-27T12:08:34.911Z,1.05
2023-06-27T12:11:04.121Z,1.00
2023-06-27T12:13:36.812Z,0.90
